Time;durP1;ratioP1;P1;durP2;ratioP2;P2;SDS_P1;SDS_P2;PMS_P1;PMS_P2;Temp;Humidity;BMP_temperature;BMP_pressure;BME280_temperature;BME280_humidity;BME280_pressure;Samples;Min_cycle;Max_cycle;Signal;HPM_P1;HPM_P2
2022/06/24 00:00:15;;;;;;;;;2.00;2.00;;;;;22.92;48.65;98427.31;4940279;28;102469;-57
2022/06/24 00:02:47;;;;;;;;;2.67;2.67;;;;;22.91;48.60;98424.88;4923026;28;104244;-57
2022/06/24 00:05:14;;;;;;;;;3.33;3.00;;;;;22.89;48.62;98422.38;4909802;28;102533;-57
2022/06/24 00:07:51;;;;;;;;;2.67;2.00;;;;;22.90;48.70;98423.22;4919583;28;102860;-57
2022/06/24 00:10:23;;;;;;;;;2.00;2.00;;;;;22.90;48.55;98434.25;4922200;28;102192;-57
2022/06/24 00:12:51;;;;;;;;;2.00;2.00;;;;;22.89;48.54;98435.34;4914702;28;108969;-57
2022/06/24 00:15:28;;;;;;;;;2.00;2.00;;;;;22.89;48.58;98429.81;4941773;28;103175;-57
2022/06/24 00:17:56;;;;;;;;;2.33;2.33;;;;;22.88;48.57;98428.16;4941243;28;102551;-57
2022/06/24 00:20:23;;;;;;;;;3.00;3.00;;;;;22.87;48.54;98430.13;4939975;28;102183;-57
2022/06/24 00:22:52;;;;;;;;;3.00;3.00;;;;;22.88;48.52;98439.19;4945246;28;103734;-57
2022/06/24 00:25:23;;;;;;;;;2.33;2.33;;;;;22.87;48.54;98441.16;4946639;28;102225;-57
2022/06/24 00:28:04;;;;;;;;;2.00;2.00;;;;;22.86;48.67;98436.75;4940822;28;102162;-57
2022/06/24 00:30:38;;;;;;;;;3.00;2.00;;;;;22.85;48.61;98428.75;4933967;28;102566;-57
2022/06/24 00:33:15;;;;;;;;;2.00;2.00;;;;;22.85;48.54;98435.09;4935582;28;104241;-57
2022/06/24 00:35:45;;;;;;;;;2.00;2.00;;;;;22.84;48.52;98427.94;4934787;28;103388;-57
2022/06/24 00:38:23;;;;;;;;;2.00;2.00;;;;;22.84;48.56;98441.72;4921894;28;102495;-57
2022/06/24 00:41:04;;;;;;;;;2.00;2.00;;;;;22.84;48.80;98433.44;4932073;28;103202;-57
2022/06/24 00:43:37;;;;;;;;;3.00;2.67;;;;;22.84;48.41;98430.69;4937663;28;109082;-57
2022/06/24 00:46:13;;;;;;;;;3.00;2.00;;;;;22.83;48.68;98439.25;4939993;28;102630;-57
2022/06/24 00:48:43;;;;;;;;;2.67;2.67;;;;;22.83;48.48;98436.50;4926661;28;102102;-57
2022/06/24 00:51:16;;;;;;;;;3.00;3.00;;;;;22.82;48.44;98432.91;4944686;28;102135;-57
2022/06/24 00:53:47;;;;;;;;;2.33;2.00;;;;;22.82;48.68;98434.84;4928466;28;104246;-57
2022/06/24 00:56:16;;;;;;;;;3.00;3.00;;;;;22.82;48.49;98427.41;4939335;28;102117;-57
2022/06/24 00:58:53;;;;;;;;;3.33;3.00;;;;;22.82;48.70;98426.56;4938221;28;102940;-57
2022/06/24 01:01:26;;;;;;;;;2.67;2.67;;;;;22.81;48.62;98420.22;4933838;28;102989;-57
2022/06/24 01:03:54;;;;;;;;;2.67;2.67;;;;;22.81;48.58;98420.22;4902511;28;108893;-57
2022/06/24 01:06:21;;;;;;;;;1.67;1.67;;;;;22.81;48.50;98416.66;4918289;28;102507;-57
2022/06/24 01:08:48;;;;;;;;;2.33;2.33;;;;;22.80;48.41;98421.34;4912422;28;102262;-57
2022/06/24 01:11:37;;;;;;;;;1.67;1.67;;;;;22.81;48.39;98411.97;4922655;28;102498;-58
2022/06/24 01:14:05;;;;;;;;;3.00;3.00;;;;;22.80;48.62;98420.50;4896332;28;109025;-57
2022/06/24 01:16:32;;;;;;;;;2.33;2.33;;;;;22.81;48.41;98431.25;4938936;28;102191;-57
2022/06/24 01:19:01;;;;;;;;;3.00;2.33;;;;;22.80;48.30;98423.25;4940291;28;102303;-57
2022/06/24 01:21:49;;;;;;;;;1.00;1.00;;;;;22.79;48.25;98416.91;4938210;28;102316;-57
2022/06/24 01:24:24;;;;;;;;;3.33;3.00;;;;;22.79;48.18;98416.91;4969419;28;109024;-57
2022/06/24 01:26:55;;;;;;;;;2.67;2.00;;;;;22.81;48.44;98413.88;4942167;28;102458;-57
2022/06/24 01:29:22;;;;;;;;;3.00;3.00;;;;;22.79;48.35;98405.91;4940221;28;102428;-57
2022/06/24 01:31:50;;;;;;;;;4.00;3.00;;;;;22.80;48.27;98401.22;4932356;28;105003;-57
2022/06/24 01:34:18;;;;;;;;;2.00;2.00;;;;;22.79;48.42;98405.91;4924676;28;104318;-57
2022/06/24 01:36:45;;;;;;;;;2.00;2.00;;;;;22.78;48.26;98401.50;4923539;28;102341;-57
2022/06/24 01:39:13;;;;;;;;;2.00;2.00;;;;;22.77;48.25;98399.03;4929615;28;102292;-57
2022/06/24 01:41:40;;;;;;;;;3.00;2.67;;;;;22.77;48.20;98388.00;4929796;28;103419;-57
2022/06/24 01:44:07;;;;;;;;;2.00;1.67;;;;;22.77;48.38;98394.34;4920498;28;104166;-57
2022/06/24 01:46:35;;;;;;;;;3.33;3.33;;;;;22.76;48.07;98392.69;4945005;28;102508;-57
2022/06/24 01:49:02;;;;;;;;;2.67;2.67;;;;;22.76;48.44;98384.41;4935235;28;102303;-57
2022/06/24 01:51:30;;;;;;;;;2.00;2.00;;;;;22.77;48.08;98391.59;4926249;28;102535;-57
2022/06/24 01:53:57;;;;;;;;;3.00;3.00;;;;;22.76;48.29;98386.34;4914510;28;109109;-57
2022/06/24 01:56:24;;;;;;;;;2.67;2.00;;;;;22.74;48.03;98383.88;4927438;28;102509;-57
2022/06/24 01:58:51;;;;;;;;;2.00;2.00;;;;;22.74;48.13;98386.63;4932598;28;102219;-57
2022/06/24 02:01:19;;;;;;;;;3.00;3.00;;;;;22.74;48.12;98392.13;4932934;28;102462;-57
2022/06/24 02:03:46;;;;;;;;;2.00;2.00;;;;;22.72;48.23;98391.63;4938674;28;104238;-57
2022/06/24 02:06:13;;;;;;;;;3.00;2.67;;;;;22.74;48.24;98396.84;4939979;28;102209;-57
2022/06/24 02:08:40;;;;;;;;;3.33;3.00;;;;;22.74;48.14;98388.59;4942315;28;102609;-57
2022/06/24 02:14:00;;;;;;;;;3.00;3.00;;;;;22.73;47.94;98387.75;4933784;28;108921;-59
2022/06/24 02:16:27;;;;;;;;;2.00;2.00;;;;;22.73;48.22;98382.25;4919300;28;102342;-57
2022/06/24 02:18:55;;;;;;;;;2.67;2.67;;;;;22.73;48.14;98378.66;4927455;28;102299;-57
2022/06/24 02:21:22;;;;;;;;;3.67;3.00;;;;;22.73;47.82;98384.16;4936958;28;102229;-57
2022/06/24 02:23:50;;;;;;;;;3.00;3.00;;;;;22.72;47.99;98379.75;4944630;28;104047;-58
2022/06/24 02:26:17;;;;;;;;;4.00;4.00;;;;;22.71;48.03;98380.84;4932430;28;102150;-57
2022/06/24 02:28:44;;;;;;;;;3.00;3.00;;;;;22.72;48.06;98380.59;4939684;28;102394;-57
2022/06/24 02:31:11;;;;;;;;;2.00;2.00;;;;;22.73;48.05;98376.72;4941903;28;104714;-57
2022/06/24 02:33:39;;;;;;;;;3.00;2.67;;;;;22.73;48.14;98373.97;4934792;28;104227;-57
2022/06/24 02:36:06;;;;;;;;;2.00;2.00;;;;;22.72;48.27;98383.34;4922217;28;102249;-57
2022/06/24 02:38:34;;;;;;;;;3.33;3.00;;;;;22.74;47.91;98380.31;4942236;28;102167;-57
2022/06/24 02:41:01;;;;;;;;;3.00;3.00;;;;;22.71;47.93;98378.94;4939149;28;104335;-59
2022/06/24 02:43:32;;;;;;;;;3.00;2.00;;;;;22.72;47.99;98377.00;4941892;28;104076;-57
2022/06/24 02:46:03;;;;;;;;;3.00;3.00;;;;;22.71;47.99;98381.69;4946447;28;102214;-57
2022/06/24 02:48:32;;;;;;;;;3.00;3.00;;;;;22.71;47.95;98372.59;4944854;28;102362;-57
2022/06/24 02:51:01;;;;;;;;;2.00;2.00;;;;;22.71;47.83;98381.69;4947278;28;102371;-57
2022/06/24 02:53:29;;;;;;;;;3.00;3.00;;;;;22.70;47.88;98371.75;4936469;28;108931;-57
2022/06/24 02:55:57;;;;;;;;;3.00;3.00;;;;;22.68;47.70;98383.06;4945748;28;102391;-57
2022/06/24 02:58:25;;;;;;;;;2.00;2.00;;;;;22.69;47.85;98375.63;4926955;28;102235;-57
2022/06/24 03:00:52;;;;;;;;;2.33;2.00;;;;;22.69;47.87;98384.72;4932692;28;104343;-57
2022/06/24 03:03:20;;;;;;;;;2.33;2.00;;;;;22.70;47.83;98388.31;4932828;28;104060;-57
2022/06/24 03:05:48;;;;;;;;;2.67;2.67;;;;;22.69;47.94;98389.41;4941282;28;101960;-57
2022/06/24 03:08:17;;;;;;;;;3.00;2.67;;;;;22.68;47.96;98391.34;4936609;28;102175;-57
2022/06/24 03:10:44;;;;;;;;;2.00;2.00;;;;;22.70;47.91;98393.81;4939502;28;102168;-57
2022/06/24 03:13:11;;;;;;;;;2.00;2.00;;;;;22.70;47.96;98391.06;4936696;28;104047;-57
2022/06/24 03:15:39;;;;;;;;;4.00;3.00;;;;;22.68;47.64;98388.56;4938092;28;102191;-57
2022/06/24 03:18:06;;;;;;;;;2.00;2.00;;;;;22.69;47.85;98395.75;4938905;28;102498;-57
2022/06/24 03:20:33;;;;;;;;;3.00;3.00;;;;;22.69;47.66;98389.41;4943446;28;102136;-57
2022/06/24 03:23:00;;;;;;;;;2.00;2.00;;;;;22.67;47.76;98388.84;4933850;28;105181;-57
2022/06/24 03:25:27;;;;;;;;;2.00;2.00;;;;;22.67;47.72;98391.59;4943057;28;102293;-57
2022/06/24 03:27:54;;;;;;;;;2.67;2.33;;;;;22.66;47.73;98393.53;4939511;28;102543;-57
2022/06/24 03:30:22;;;;;;;;;2.33;2.33;;;;;22.66;47.99;98398.22;4934262;28;104177;-57
2022/06/24 03:32:49;;;;;;;;;2.00;2.00;;;;;22.66;48.06;98401.81;4942183;28;104039;-57
2022/06/24 03:35:16;;;;;;;;;1.67;1.67;;;;;22.66;47.66;98395.47;4934312;28;102296;-57
2022/06/24 03:37:44;;;;;;;;;3.33;3.33;;;;;22.65;47.79;98393.81;4941230;28;102154;-57
2022/06/24 03:40:12;;;;;;;;;3.00;2.67;;;;;22.65;47.74;98394.63;4939967;28;102562;-57
2022/06/24 03:42:39;;;;;;;;;3.00;2.67;;;;;22.65;47.83;98391.06;4942948;28;104176;-57
2022/06/24 03:45:06;;;;;;;;;2.00;2.00;;;;;22.66;47.55;98390.78;4936829;28;102315;-57
2022/06/24 03:47:33;;;;;;;;;3.00;3.00;;;;;22.65;47.77;98391.06;4942698;28;102145;-58
2022/06/24 03:50:01;;;;;;;;;2.00;2.00;;;;;22.65;47.77;98391.88;4937829;28;102443;-57
2022/06/24 03:52:28;;;;;;;;;3.00;3.00;;;;;22.64;47.57;98390.25;4943074;28;109807;-57
2022/06/24 03:54:55;;;;;;;;;3.00;3.00;;;;;22.65;47.73;98393.81;4944983;28;102670;-57
2022/06/24 03:57:22;;;;;;;;;2.00;2.00;;;;;22.65;47.61;98393.81;4937462;28;102608;-58
2022/06/24 03:59:49;;;;;;;;;2.67;2.67;;;;;22.64;47.70;98393.00;4938113;28;102410;-57
2022/06/24 04:02:18;;;;;;;;;2.00;2.00;;;;;22.63;47.74;98391.34;4927152;28;104419;-57
2022/06/24 04:04:45;;;;;;;;;2.00;2.00;;;;;22.63;47.73;98396.03;4940124;28;102235;-57
2022/06/24 04:07:13;;;;;;;;;3.00;2.00;;;;;22.63;47.63;98407.06;4937971;28;102531;-57
2022/06/24 04:09:40;;;;;;;;;3.00;3.00;;;;;22.61;47.74;98398.25;4935472;28;102110;-57
2022/06/24 04:12:07;;;;;;;;;2.67;2.67;;;;;22.63;47.65;98412.59;4930854;28;104265;-57
2022/06/24 04:17:20;;;;;;;;;3.00;3.00;;;;;22.61;47.92;98407.34;4940869;28;102294;-57
2022/06/24 04:19:47;;;;;;;;;3.00;3.00;;;;;22.61;47.75;98412.84;4930367;28;102316;-57
2022/06/24 04:22:14;;;;;;;;;3.00;3.00;;;;;22.60;47.83;98413.97;4933541;28;104124;-57
2022/06/24 04:24:41;;;;;;;;;3.00;3.00;;;;;22.60;48.06;98413.97;4949169;28;102543;-57
2022/06/24 04:27:08;;;;;;;;;2.00;2.00;;;;;22.60;47.87;98402.13;4937565;28;102217;-57
2022/06/24 04:29:35;;;;;;;;;2.67;2.67;;;;;22.59;48.18;98406.81;4946041;28;102397;-58
2022/06/24 04:32:03;;;;;;;;;3.00;3.00;;;;;22.60;47.69;98402.13;4945363;28;104173;-57
2022/06/24 04:34:30;;;;;;;;;2.33;2.33;;;;;22.59;48.05;98406.00;4940145;28;102448;-57
2022/06/24 04:36:57;;;;;;;;;2.00;2.00;;;;;22.59;47.73;98411.50;4930421;28;102071;-57
2022/06/24 04:39:24;;;;;;;;;3.00;3.00;;;;;22.57;47.95;98409.03;4936009;28;102408;-57
2022/06/24 04:41:51;;;;;;;;;2.00;2.00;;;;;22.59;48.00;98412.34;4929134;28;104037;-57
2022/06/24 04:44:18;;;;;;;;;2.00;2.00;;;;;22.59;48.04;98406.00;4929469;28;102227;-56
2022/06/24 04:46:45;;;;;;;;;2.00;2.00;;;;;22.59;47.90;98406.00;4941845;28;102616;-57
2022/06/24 04:49:12;;;;;;;;;3.00;3.00;;;;;22.57;48.21;98402.69;4945359;28;102003;-57
2022/06/24 04:51:40;;;;;;;;;3.00;2.00;;;;;22.56;48.30;98401.84;4943107;28;104441;-57
2022/06/24 04:54:07;;;;;;;;;2.33;2.00;;;;;22.56;48.06;98412.06;4939557;28;102269;-57
2022/06/24 04:56:35;;;;;;;;;2.00;2.00;;;;;22.55;48.28;98411.25;4943306;28;102556;-60
2022/06/24 04:59:02;;;;;;;;;1.67;1.67;;;;;22.55;48.06;98408.50;4944895;28;102366;-57
2022/06/24 05:01:29;;;;;;;;;2.33;2.33;;;;;22.54;48.06;98406.84;4945801;28;103965;-57
2022/06/24 05:03:59;;;;;;;;;2.00;2.00;;;;;22.54;48.48;98403.25;4937898;28;102953;-58
2022/06/24 05:06:26;;;;;;;;;2.00;1.67;;;;;22.53;48.35;98399.66;4943637;28;102305;-57
2022/06/24 05:08:53;;;;;;;;;2.67;2.33;;;;;22.55;48.21;98393.88;4936471;28;102457;-57
2022/06/24 05:11:20;;;;;;;;;3.00;3.00;;;;;22.54;48.15;98403.25;4938520;28;104043;-57
2022/06/24 05:13:48;;;;;;;;;2.67;2.67;;;;;22.56;48.21;98403.81;4943815;28;102304;-57
2022/06/24 05:16:15;;;;;;;;;2.67;2.67;;;;;22.58;48.20;98407.09;4934622;28;102475;-57
2022/06/24 05:19:02;;;;;;;;;3.33;3.33;;;;;22.58;48.14;98396.06;4965899;28;102162;-57
2022/06/24 05:21:29;;;;;;;;;2.00;2.00;;;;;22.57;48.18;98403.50;4943693;28;104078;-57
2022/06/24 05:23:57;;;;;;;;;2.00;2.00;;;;;22.59;48.15;98392.22;4938005;28;102558;-57
2022/06/24 05:26:24;;;;;;;;;3.00;2.00;;;;;22.61;48.09;98389.97;4940486;28;102522;-57
2022/06/24 05:28:51;;;;;;;;;2.67;2.00;;;;;22.60;48.09;98391.09;4940123;28;102582;-57
2022/06/24 05:31:18;;;;;;;;;2.00;2.00;;;;;22.60;48.18;98383.63;4930412;28;104700;-57
2022/06/24 05:33:45;;;;;;;;;2.00;2.00;;;;;22.60;48.01;98389.16;4937576;28;105510;-57
2022/06/24 05:36:12;;;;;;;;;2.33;2.33;;;;;22.60;48.08;98391.09;4942350;28;102304;-57
2022/06/24 05:38:39;;;;;;;;;2.67;2.67;;;;;22.60;47.99;98382.84;4931895;28;102172;-57
2022/06/24 05:41:11;;;;;;;;;2.00;2.00;;;;;22.60;48.18;98385.59;4934572;28;104128;-57
2022/06/24 05:43:38;;;;;;;;;3.00;3.00;;;;;22.59;48.12;98395.78;4934452;28;102203;-57
2022/06/24 05:46:05;;;;;;;;;3.00;3.00;;;;;22.61;47.99;98389.97;4943386;28;102251;-57
2022/06/24 05:48:32;;;;;;;;;2.00;2.00;;;;;22.61;47.95;98389.97;4946047;28;102227;-57
2022/06/24 05:51:05;;;;;;;;;2.00;2.00;;;;;22.61;48.29;98395.50;4945248;28;104028;-57
2022/06/24 05:56:19;;;;;;;;;2.00;2.00;;;;;22.61;48.04;98388.06;4941602;28;102204;-57
2022/06/24 05:58:46;;;;;;;;;2.00;2.00;;;;;22.63;48.17;98398.81;4945076;28;111501;-57
2022/06/24 06:01:13;;;;;;;;;3.00;3.00;;;;;22.62;48.35;98397.16;4943540;28;104142;-57
2022/06/24 06:03:41;;;;;;;;;3.00;2.00;;;;;22.62;48.13;98395.22;4942090;28;102164;-56
2022/06/24 06:06:08;;;;;;;;;2.00;2.00;;;;;22.63;48.10;98398.81;4940522;28;102299;-57
2022/06/24 06:08:36;;;;;;;;;1.00;1.00;;;;;22.63;48.07;98391.34;4944607;28;102488;-56
2022/06/24 06:11:18;;;;;;;;;2.00;2.00;;;;;22.63;48.32;98401.56;4945264;28;109044;-57
2022/06/24 06:13:46;;;;;;;;;2.00;2.00;;;;;22.65;48.15;98399.31;4945005;28;102480;-57
2022/06/24 06:16:14;;;;;;;;;3.33;3.00;;;;;22.64;48.33;98392.19;4946894;28;102931;-57
2022/06/24 06:18:41;;;;;;;;;2.33;2.33;;;;;22.63;48.02;98401.56;4971012;28;102499;-57
2022/06/24 06:21:09;;;;;;;;;2.33;2.33;;;;;22.64;48.16;98404.03;4934166;28;104037;-57
2022/06/24 06:23:37;;;;;;;;;2.00;2.00;;;;;22.63;48.28;98394.13;4943770;28;102959;-57
2022/06/24 06:26:05;;;;;;;;;2.00;2.00;;;;;22.64;47.98;98412.31;4943662;28;102119;-57
2022/06/24 06:28:32;;;;;;;;;2.00;2.00;;;;;22.65;48.06;98418.63;4937129;28;102157;-57
2022/06/24 06:30:59;;;;;;;;;3.00;2.00;;;;;22.66;47.91;98412.00;4939783;28;104223;-57
2022/06/24 06:33:27;;;;;;;;;2.00;2.00;;;;;22.66;48.28;98409.25;4942153;28;104370;-57
2022/06/24 06:36:07;;;;;;;;;2.00;2.00;;;;;22.65;47.95;98413.94;4942076;28;102215;-57
2022/06/24 06:38:34;;;;;;;;;1.67;1.67;;;;;22.65;48.15;98413.94;4941010;28;102910;-57
2022/06/24 06:41:01;;;;;;;;;3.33;3.00;;;;;22.67;48.05;98419.16;4934775;28;104279;-57
2022/06/24 06:43:29;;;;;;;;;2.00;2.00;;;;;22.66;48.30;98412.00;4938227;28;102540;-57
2022/06/24 06:45:56;;;;;;;;;3.00;2.00;;;;;22.66;48.07;98414.75;4938495;28;103265;-57
2022/06/24 06:48:23;;;;;;;;;2.00;2.00;;;;;22.66;48.45;98409.25;4940159;28;102617;-57
2022/06/24 06:50:57;;;;;;;;;3.33;3.00;;;;;22.65;48.40;98405.66;4941859;28;104140;-57
2022/06/24 06:53:25;;;;;;;;;2.33;2.33;;;;;22.67;48.24;98408.16;4943650;28;102194;-57
2022/06/24 06:55:52;;;;;;;;;3.00;2.00;;;;;22.67;48.27;98410.91;4939590;28;110107;-57
2022/06/24 06:58:19;;;;;;;;;2.00;2.00;;;;;22.68;48.26;98404.28;4944748;28;102320;-57
2022/06/24 07:00:46;;;;;;;;;2.00;2.00;;;;;22.68;48.39;98418.06;4943890;28;105018;-57
2022/06/24 07:03:14;;;;;;;;;2.00;2.00;;;;;22.69;48.29;98400.44;4941064;28;103082;-57
2022/06/24 07:05:44;;;;;;;;;2.00;2.00;;;;;22.68;48.11;98404.28;4934914;28;102376;-57
2022/06/24 07:08:11;;;;;;;;;2.00;2.00;;;;;22.69;48.27;98405.94;4942874;28;102578;-57
2022/06/24 07:10:39;;;;;;;;;2.00;1.00;;;;;22.69;48.10;98394.91;4937982;28;104075;-58
2022/06/24 07:13:06;;;;;;;;;2.67;2.67;;;;;22.69;48.11;98393.00;4942174;28;102569;-57
2022/06/24 07:15:33;;;;;;;;;3.00;3.00;;;;;22.69;48.08;98390.22;4948104;28;102305;-57
2022/06/24 07:18:01;;;;;;;;;2.00;2.00;;;;;22.71;48.01;98397.41;4930406;28;102447;-57
2022/06/24 07:20:28;;;;;;;;;2.00;2.00;;;;;22.70;48.19;98402.09;4932546;28;104195;-57
2022/06/24 07:22:55;;;;;;;;;2.33;2.33;;;;;22.71;48.29;98394.66;4959941;28;102106;-57
2022/06/24 07:25:22;;;;;;;;;2.00;2.00;;;;;22.71;48.33;98391.88;4941342;28;102448;-57
2022/06/24 07:27:49;;;;;;;;;2.00;2.00;;;;;22.71;48.26;98398.22;4946466;28;102740;-57
2022/06/24 07:30:16;;;;;;;;;2.00;2.00;;;;;22.72;48.34;98393.53;4933888;28;104067;-57
2022/06/24 07:32:46;;;;;;;;;3.00;3.00;;;;;22.72;48.00;98394.38;4939059;28;103294;-57
2022/06/24 07:35:13;;;;;;;;;2.00;2.00;;;;;22.72;47.96;98391.63;4936536;28;102206;-57
2022/06/24 07:38:00;;;;;;;;;3.00;3.00;;;;;22.73;48.14;98382.25;4940821;28;102905;-57
2022/06/24 07:40:27;;;;;;;;;2.67;2.00;;;;;22.73;48.07;98390.50;4940795;28;104329;-57
2022/06/24 07:42:54;;;;;;;;;2.00;1.67;;;;;22.74;48.03;98383.88;4938957;28;102237;-57
2022/06/24 07:45:21;;;;;;;;;3.00;2.00;;;;;22.74;48.14;98389.38;4934959;28;102425;-57
2022/06/24 07:47:48;;;;;;;;;2.00;2.00;;;;;22.75;48.13;98382.75;4940771;28;102199;-57
2022/06/24 07:50:15;;;;;;;;;3.00;3.00;;;;;22.75;48.14;98376.41;4964812;28;104159;-57
2022/06/24 07:52:42;;;;;;;;;3.00;3.00;;;;;22.75;47.89;98374.50;4936059;28;102325;-57
2022/06/24 07:57:55;;;;;;;;;1.33;1.33;;;;;22.75;48.13;98376.41;4936978;28;102457;-57
2022/06/24 08:00:22;;;;;;;;;2.00;2.00;;;;;22.76;47.90;98372.56;4927775;28;104195;-57
2022/06/24 08:02:49;;;;;;;;;2.00;2.00;;;;;22.77;48.05;98375.03;4931853;28;110788;-57
2022/06/24 08:05:16;;;;;;;;;2.33;2.33;;;;;22.78;48.08;98371.19;4933104;28;102204;-57
2022/06/24 08:07:44;;;;;;;;;1.67;1.67;;;;;22.79;47.91;98363.72;4938632;28;102629;-57
2022/06/24 08:10:11;;;;;;;;;2.00;2.00;;;;;22.78;47.93;98365.69;4936175;28;104087;-58
2022/06/24 08:12:38;;;;;;;;;2.00;2.00;;;;;22.80;47.92;98357.09;4944074;28;102193;-57
2022/06/24 08:15:06;;;;;;;;;3.00;2.33;;;;;22.79;48.00;98359.03;4926844;28;105560;-57
2022/06/24 08:17:33;;;;;;;;;2.00;2.00;;;;;22.80;47.80;98355.16;4923245;28;102486;-57
2022/06/24 08:20:00;;;;;;;;;1.67;1.67;;;;;22.81;48.00;98356.00;4935962;28;104335;-57
2022/06/24 08:22:27;;;;;;;;;2.00;2.00;;;;;22.80;47.86;98357.94;4966760;28;102211;-57
2022/06/24 08:24:54;;;;;;;;;2.00;2.00;;;;;22.81;47.86;98354.06;4939273;28;102890;-57
2022/06/24 08:27:41;;;;;;;;;3.00;2.00;;;;;22.82;47.76;98349.38;4927469;28;102183;-57
2022/06/24 08:30:09;;;;;;;;;3.33;3.00;;;;;22.81;47.78;98348.56;4935398;28;111297;-57
2022/06/24 08:32:36;;;;;;;;;3.00;2.00;;;;;22.82;47.86;98338.34;4934975;28;102779;-57
2022/06/24 08:35:03;;;;;;;;;2.00;2.00;;;;;22.83;47.75;98340.81;4942404;28;102117;-57
2022/06/24 08:37:51;;;;;;;;;2.67;2.67;;;;;22.84;47.89;98342.44;4940700;28;102183;-57
2022/06/24 08:40:19;;;;;;;;;2.00;1.00;;;;;22.85;47.71;98335.84;4934971;28;104581;-57
2022/06/24 08:42:52;;;;;;;;;3.00;3.00;;;;;22.86;47.69;98337.50;4929070;28;102398;-57
2022/06/24 08:45:19;;;;;;;;;2.00;2.00;;;;;22.87;47.67;98330.88;4970692;28;102965;-57
2022/06/24 08:47:48;;;;;;;;;2.00;2.00;;;;;22.88;47.68;98324.22;4933802;28;102306;-57
2022/06/24 08:50:15;;;;;;;;;2.00;2.00;;;;;22.88;47.64;98324.22;4935266;28;104015;-58
2022/06/24 08:52:50;;;;;;;;;3.00;2.33;;;;;22.89;47.60;98317.59;4941316;28;102118;-57
2022/06/24 08:55:22;;;;;;;;;2.67;2.00;;;;;22.89;47.56;98316.78;4932715;28;102657;-57
2022/06/24 08:57:49;;;;;;;;;2.33;2.33;;;;;22.89;47.68;98316.78;4933913;28;102330;-57
2022/06/24 09:00:18;;;;;;;;;2.00;2.00;;;;;22.90;47.68;98322.00;4933716;28;104331;-57
2022/06/24 09:02:46;;;;;;;;;2.00;2.00;;;;;22.90;47.67;98319.25;4936350;28;102449;-57
2022/06/24 09:05:15;;;;;;;;;2.00;2.00;;;;;22.90;47.75;98310.97;4935511;28;102370;-57
2022/06/24 09:07:42;;;;;;;;;2.00;2.00;;;;;22.91;47.49;98320.91;4947989;28;102161;-57
2022/06/24 09:10:11;;;;;;;;;2.67;2.67;;;;;22.91;47.62;98309.88;4939524;28;110024;-57
2022/06/24 09:12:43;;;;;;;;;1.00;1.00;;;;;22.92;47.60;98322.53;4938529;28;102187;-57
2022/06/24 09:15:11;;;;;;;;;2.00;2.00;;;;;22.93;47.36;98320.59;4935678;28;102439;-57
2022/06/24 09:17:39;;;;;;;;;3.00;3.00;;;;;22.93;47.53;98310.41;4942046;28;102340;-57
2022/06/24 09:20:13;;;;;;;;;2.00;2.00;;;;;22.95;47.50;98319.22;4935378;28;104118;-57
2022/06/24 09:23:16;;;;;;;;;2.00;2.00;;;;;22.95;47.66;98319.22;4943697;28;102227;-57
2022/06/24 09:25:51;;;;;;;;;2.67;2.67;;;;;22.96;47.79;98317.28;4935016;28;102132;-57
2022/06/24 09:28:21;;;;;;;;;2.00;2.00;;;;;22.97;47.65;98308.72;4947235;28;102513;-57
2022/06/24 09:30:48;;;;;;;;;2.67;2.67;;;;;22.97;47.62;98307.88;4944743;28;109067;-57
2022/06/24 09:33:17;;;;;;;;;2.67;2.00;;;;;22.98;47.70;98310.38;4936739;28;102379;-57
2022/06/24 09:36:04;;;;;;;;;2.00;2.00;;;;;22.98;47.68;98310.38;4974006;28;102393;-57
2022/06/24 09:38:31;;;;;;;;;1.00;1.00;;;;;22.98;47.71;98304.03;4939349;28;102402;-57
2022/06/24 09:41:04;;;;;;;;;1.33;1.00;;;;;22.97;47.63;98303.19;4935674;28;104270;-57
2022/06/24 09:43:32;;;;;;;;;2.00;2.00;;;;;22.99;47.52;98303.75;4940918;28;102140;-57
2022/06/24 09:45:59;;;;;;;;;2.00;2.00;;;;;23.00;47.55;98308.16;4945496;28;102562;-57
2022/06/24 09:48:33;;;;;;;;;2.00;2.00;;;;;23.02;47.66;98300.41;4943861;28;102443;-57
2022/06/24 09:51:06;;;;;;;;;3.00;3.00;;;;;23.01;47.66;98309.78;4942586;28;104098;-57
2022/06/24 09:53:35;;;;;;;;;2.33;2.00;;;;;23.03;47.66;98299.28;4938186;28;102193;-57
2022/06/24 09:56:03;;;;;;;;;1.67;1.67;;;;;23.02;47.59;98300.41;4950644;28;102253;-57
2022/06/24 09:58:30;;;;;;;;;2.33;2.33;;;;;23.01;47.42;98293.22;4937911;28;102371;-56
2022/06/24 10:00:57;;;;;;;;;2.00;2.00;;;;;23.02;47.50;98297.63;4936207;28;104410;-57
2022/06/24 10:03:24;;;;;;;;;2.00;2.00;;;;;23.02;47.62;98289.38;4936821;28;102539;-57
2022/06/24 10:05:52;;;;;;;;;1.00;1.00;;;;;23.03;47.58;98293.78;4932556;28;102271;-57
2022/06/24 10:08:21;;;;;;;;;1.00;1.00;;;;;23.03;47.60;98291.03;4935287;28;102624;-57
2022/06/24 10:10:52;;;;;;;;;2.00;2.00;;;;;23.04;47.64;98291.84;4936742;28;108860;-57
2022/06/24 10:13:25;;;;;;;;;1.00;1.00;;;;;23.04;47.55;98289.91;4944895;28;105564;-57
2022/06/24 10:16:00;;;;;;;;;2.00;2.00;;;;;23.06;47.42;98286.84;4942131;28;102468;-57
2022/06/24 10:18:39;;;;;;;;;1.00;1.00;;;;;23.06;47.53;98293.19;4935705;28;102641;-57
2022/06/24 10:21:08;;;;;;;;;2.00;2.00;;;;;23.07;47.57;98280.22;4947030;28;104065;-57
2022/06/24 10:23:47;;;;;;;;;1.33;1.33;;;;;23.07;47.63;98277.47;4937423;28;102512;-57
2022/06/24 10:26:30;;;;;;;;;2.00;2.00;;;;;23.08;47.38;98277.19;4935545;28;102523;-57
2022/06/24 10:29:03;;;;;;;;;2.33;2.33;;;;;23.09;47.60;98278.84;4974520;28;102278;-57
2022/06/24 10:31:45;;;;;;;;;1.67;1.67;;;;;23.09;47.50;98276.09;4935626;28;104043;-57
2022/06/24 10:34:20;;;;;;;;;3.00;3.00;;;;;23.08;47.48;98268.91;4942130;28;102287;-56
2022/06/24 10:37:09;;;;;;;;;1.00;1.00;;;;;23.10;47.50;98271.34;4934842;28;102211;-57
2022/06/24 10:39:55;;;;;;;;;2.00;2.00;;;;;23.10;47.39;98257.56;4920282;28;102619;-57
2022/06/24 10:42:24;;;;;;;;;1.33;1.33;;;;;23.11;47.53;98259.22;4934383;28;109025;-58
2022/06/24 10:45:01;;;;;;;;;3.00;3.00;;;;;23.10;47.63;98258.41;4939687;28;103921;-58
2022/06/24 10:47:34;;;;;;;;;2.00;2.00;;;;;23.11;47.46;98251.78;4938614;28;102235;-57
2022/06/24 10:50:02;;;;;;;;;2.00;2.00;;;;;23.11;47.37;98250.94;4927281;28;102555;-57
2022/06/24 10:52:45;;;;;;;;;2.00;2.00;;;;;23.12;47.46;98245.16;4943716;28;104239;-57
2022/06/24 10:55:15;;;;;;;;;1.00;1.00;;;;;23.13;47.44;98246.81;4948164;28;103618;-57
2022/06/24 10:57:49;;;;;;;;;2.00;2.00;;;;;23.13;47.43;98244.03;4933072;28;102493;-57
2022/06/24 11:00:40;;;;;;;;;2.00;2.00;;;;;23.16;47.57;98244.56;4938757;28;102379;-57
2022/06/24 11:03:22;;;;;;;;;2.67;2.67;;;;;23.17;47.46;98251.72;4941993;28;108907;-57
2022/06/24 11:05:51;;;;;;;;;1.33;1.33;;;;;23.17;47.46;98243.44;4925437;28;102165;-57
2022/06/24 11:08:22;;;;;;;;;2.00;2.00;;;;;23.16;47.24;98228.00;4935592;28;102597;-57
2022/06/24 11:10:50;;;;;;;;;3.33;2.00;;;;;23.17;47.25;98235.19;4937416;28;102625;-57
2022/06/24 11:13:17;;;;;;;;;1.67;1.67;;;;;23.16;47.56;98239.88;4934704;28;108719;-57
2022/06/24 11:15:50;;;;;;;;;1.33;1.33;;;;;23.18;47.58;98237.66;4937333;28;102195;-57
2022/06/24 11:18:19;;;;;;;;;2.00;2.00;;;;;23.19;47.53;98230.19;4938880;28;102169;-57
2022/06/24 11:20:57;;;;;;;;;1.00;1.00;;;;;23.19;47.48;98224.69;4932798;28;102668;-57
2022/06/24 11:23:24;;;;;;;;;2.00;2.00;;;;;23.19;47.37;98208.94;4937530;28;109010;-57
2022/06/24 11:26:03;;;;;;;;;3.00;3.00;;;;;23.19;47.54;98219.97;4946103;28;102023;-57
2022/06/24 11:28:32;;;;;;;;;1.67;1.67;;;;;23.21;47.42;98222.44;4926926;28;102533;-57
2022/06/24 11:31:28;;;;;;;;;2.00;2.00;;;;;23.21;47.46;98203.97;4923918;28;102456;-57
2022/06/24 11:34:04;;;;;;;;;1.67;1.33;;;;;23.23;47.29;98206.44;4936800;28;108923;-57
2022/06/24 11:36:31;;;;;;;;;2.33;2.33;;;;;23.23;47.23;98203.69;4922860;28;102105;-57
2022/06/24 11:39:01;;;;;;;;;2.00;2.00;;;;;23.22;47.44;98202.84;4944701;28;102231;-57
2022/06/24 11:41:31;;;;;;;;;1.67;1.67;;;;;23.25;47.50;98206.94;4941964;28;102186;-57
2022/06/24 11:44:16;;;;;;;;;1.33;1.33;;;;;23.24;47.40;98199.78;4939029;28;104268;-57
2022/06/24 11:46:50;;;;;;;;;2.00;2.00;;;;;23.24;47.36;98202.53;4926421;28;102722;-57